Time;durP1;ratioP1;P1;durP2;ratioP2;P2;SDS_P1;SDS_P2;PMS_P1;PMS_P2;Temp;Humidity;BMP_temperature;BMP_pressure;BME280_temperature;BME280_humidity;BME280_pressure;Samples;Min_cycle;Max_cycle;Signal;HPM_P1;HPM_P2
2022/08/15 00:00:56;;;;;;;1.50;0.60;;;15.20;99.90;;;;;;5034792;28;20273;-74
2022/08/15 00:03:29;;;;;;;2.42;0.60;;;15.40;99.90;;;;;;5034160;28;20183;-77
2022/08/15 00:06:04;;;;;;;2.38;0.70;;;15.50;99.90;;;;;;5033825;28;20202;-79
2022/08/15 00:08:37;;;;;;;0.98;0.50;;;15.70;99.90;;;;;;5034395;28;20692;-78
2022/08/15 00:11:11;;;;;;;2.25;0.60;;;15.80;99.90;;;;;;5030957;28;20264;-84
2022/08/15 00:13:43;;;;;;;1.13;0.60;;;15.90;99.90;;;;;;5034177;28;20281;-85
2022/08/15 00:16:16;;;;;;;1.85;0.50;;;16.00;99.90;;;;;;5041042;28;20572;-85
2022/08/15 00:18:47;;;;;;;1.67;0.50;;;16.10;99.90;;;;;;5029424;28;20206;-77
2022/08/15 00:21:22;;;;;;;0.43;0.40;;;16.20;99.90;;;;;;5043590;28;20189;-78
2022/08/15 00:23:55;;;;;;;1.35;0.60;;;16.30;99.90;;;;;;5036582;28;20194;-73
2022/08/15 00:26:26;;;;;;;1.23;0.50;;;16.40;99.90;;;;;;5036717;28;20224;-74
2022/08/15 00:28:57;;;;;;;1.23;0.60;;;16.50;99.90;;;;;;5034980;28;20236;-86
2022/08/15 00:31:31;;;;;;;1.63;0.50;;;16.60;99.90;;;;;;5035320;28;20216;-86
2022/08/15 00:34:02;;;;;;;0.60;0.50;;;16.70;99.90;;;;;;5045588;28;20198;-81
2022/08/15 00:36:36;;;;;;;2.08;0.50;;;16.70;99.90;;;;;;5039510;28;20307;-81
2022/08/15 00:39:08;;;;;;;2.72;0.70;;;16.80;99.90;;;;;;5029994;28;20237;-85
2022/08/15 00:41:41;;;;;;;3.90;0.70;;;16.80;99.90;;;;;;5043261;28;20201;-81
2022/08/15 00:44:14;;;;;;;1.52;0.50;;;16.90;99.90;;;;;;5032511;28;20214;-85
2022/08/15 00:46:47;;;;;;;2.33;0.60;;;16.90;99.90;;;;;;5028592;28;20281;-87
2022/08/15 00:49:18;;;;;;;0.40;0.40;;;16.90;99.90;;;;;;5042223;28;20222;-85
2022/08/15 00:51:54;;;;;;;0.95;0.40;;;16.90;99.90;;;;;;5043805;28;20201;-82
2022/08/15 00:54:29;;;;;;;2.05;0.57;;;16.80;99.90;;;;;;5038900;28;20297;-77
2022/08/15 00:57:06;;;;;;;1.30;0.40;;;16.80;99.90;;;;;;5031371;28;20194;-86
2022/08/15 00:59:51;;;;;;;0.70;0.30;;;16.80;99.90;;;;;;5034868;28;20201;-76
2022/08/15 01:02:24;;;;;;;0.98;0.40;;;16.80;99.90;;;;;;5027282;28;20210;-79
2022/08/15 01:04:55;;;;;;;0.63;0.40;;;16.80;99.90;;;;;;5032494;28;20202;-81
2022/08/15 01:07:28;;;;;;;0.82;0.50;;;16.90;99.90;;;;;;5038168;28;20194;-80
2022/08/15 01:10:00;;;;;;;1.30;0.50;;;16.90;99.90;;;;;;5033322;28;20195;-82
2022/08/15 01:12:32;;;;;;;0.85;0.50;;;16.90;99.90;;;;;;5042270;28;20205;-81
2022/08/15 01:15:08;;;;;;;1.17;0.57;;;17.00;99.90;;;;;;5036971;28;20206;-80
2022/08/15 01:17:39;;;;;;;1.67;0.63;;;17.00;99.90;;;;;;5036912;28;20205;-80
2022/08/15 01:20:15;;;;;;;3.28;0.50;;;17.10;99.90;;;;;;5020575;28;20202;-80
2022/08/15 01:23:05;;;;;;;0.55;0.55;;;17.30;99.90;;;;;;5034595;28;20209;-82
2022/08/15 01:25:41;;;;;;;1.95;0.47;;;17.40;99.90;;;;;;5028663;28;20671;-83
2022/08/15 01:28:17;;;;;;;1.10;0.40;;;17.50;99.90;;;;;;5038795;28;20197;-79
2022/08/15 01:30:51;;;;;;;2.92;0.40;;;17.50;99.90;;;;;;5037148;28;20653;-82
2022/08/15 01:33:24;;;;;;;1.17;0.40;;;17.60;99.90;;;;;;5030291;28;20213;-80
2022/08/15 01:35:56;;;;;;;0.65;0.40;;;17.60;99.90;;;;;;5031709;28;20228;-79
2022/08/15 01:38:31;;;;;;;3.90;0.70;;;17.50;99.90;;;;;;5032313;28;20560;-83
2022/08/15 01:41:10;;;;;;;1.05;0.50;;;17.50;99.90;;;;;;5032422;28;20201;-79
2022/08/15 01:43:52;;;;;;;0.45;0.40;;;17.50;99.90;;;;;;5034535;28;20715;-78
2022/08/15 01:46:25;;;;;;;1.17;0.50;;;17.60;99.90;;;;;;5032411;28;20617;-84
2022/08/15 01:49:08;;;;;;;0.88;0.40;;;17.90;99.90;;;;;;5028767;28;20661;-82
2022/08/15 01:51:39;;;;;;;0.55;0.40;;;17.90;99.90;;;;;;5025091;28;20239;-81
2022/08/15 01:54:12;;;;;;;1.10;0.30;;;17.70;99.90;;;;;;5032477;28;20198;-80
2022/08/15 01:56:47;;;;;;;1.10;0.50;;;17.60;99.90;;;;;;5030446;28;20700;-81
2022/08/15 01:59:20;;;;;;;0.40;0.40;;;17.60;99.90;;;;;;5032386;28;20665;-84
2022/08/15 02:01:53;;;;;;;1.23;0.30;;;17.70;99.90;;;;;;5034497;28;20190;-77
2022/08/15 02:04:28;;;;;;;2.58;0.40;;;18.00;99.90;;;;;;5027294;28;20191;-78
2022/08/15 02:07:01;;;;;;;0.90;0.40;;;18.20;99.90;;;;;;5031753;28;20248;-79
2022/08/15 02:09:32;;;;;;;1.20;0.50;;;18.40;99.90;;;;;;5024784;28;20203;-72
2022/08/15 02:12:08;;;;;;;0.93;0.32;;;18.40;99.90;;;;;;5032343;28;20209;-80
2022/08/15 02:14:41;;;;;;;1.10;0.40;;;18.50;99.90;;;;;;5032831;28;20197;-82
2022/08/15 02:17:16;;;;;;;0.55;0.40;;;18.60;99.90;;;;;;5035184;28;20206;-74
2022/08/15 02:19:48;;;;;;;6.10;0.90;;;18.60;99.90;;;;;;5031807;28;20190;-82
2022/08/15 02:22:21;;;;;;;2.47;0.40;;;18.60;99.90;;;;;;5031126;28;20732;-73
2022/08/15 02:24:52;;;;;;;9.57;7.28;;;18.70;99.90;;;;;;5030979;28;20208;-79
2022/08/15 02:27:25;;;;;;;2.22;1.73;;;18.90;99.90;;;;;;5038891;28;20205;-79
2022/08/15 02:29:57;;;;;;;2.65;0.90;;;19.00;99.90;;;;;;5031524;28;20591;-79
2022/08/15 02:32:28;;;;;;;4.38;0.70;;;19.00;99.90;;;;;;5031315;28;21501;-73
2022/08/15 02:34:59;;;;;;;1.75;0.50;;;19.10;99.90;;;;;;5033470;28;20684;-81
2022/08/15 02:37:30;;;;;;;0.93;0.50;;;19.00;99.90;;;;;;5032013;28;20197;-73
2022/08/15 02:40:01;;;;;;;0.68;0.40;;;18.90;99.90;;;;;;5034076;28;20230;-74
2022/08/15 02:42:36;;;;;;;0.40;0.40;;;18.90;99.90;;;;;;5038501;28;20682;-75
2022/08/15 02:45:10;;;;;;;0.77;0.40;;;18.80;99.90;;;;;;5030482;28;20197;-75
2022/08/15 02:47:43;;;;;;;0.93;0.52;;;18.50;99.90;;;;;;5029210;28;20201;-73
2022/08/15 02:50:16;;;;;;;0.85;0.60;;;18.30;99.90;;;;;;5030996;28;20212;-77
2022/08/15 02:52:49;;;;;;;0.70;0.40;;;18.30;99.90;;;;;;5035939;28;20191;-73
2022/08/15 02:55:20;;;;;;;1.33;0.60;;;18.30;99.90;;;;;;5040674;28;20206;-74
2022/08/15 02:57:54;;;;;;;1.30;0.38;;;18.30;99.90;;;;;;5042328;28;20208;-73
2022/08/15 03:00:27;;;;;;;0.50;0.40;;;18.20;99.90;;;;;;5037466;28;20198;-74
2022/08/15 03:03:01;;;;;;;1.33;0.63;;;18.10;99.90;;;;;;5038518;28;20199;-74
2022/08/15 03:05:33;;;;;;;0.82;0.55;;;18.30;99.90;;;;;;5033858;28;20666;-73
2022/08/15 03:08:05;;;;;;;0.30;0.30;;;18.40;99.90;;;;;;5034982;28;20198;-82
2022/08/15 03:10:38;;;;;;;0.60;0.30;;;18.40;99.90;;;;;;5034501;28;20662;-77
2022/08/15 03:13:13;;;;;;;1.75;0.32;;;18.40;99.90;;;;;;5029435;28;20600;-75
2022/08/15 03:15:47;;;;;;;0.40;0.40;;;18.30;99.90;;;;;;5040731;28;20585;-74
2022/08/15 03:18:19;;;;;;;0.68;0.30;;;18.20;99.90;;;;;;5037366;28;20228;-73
2022/08/15 03:20:51;;;;;;;1.48;0.30;;;18.10;99.90;;;;;;5037921;28;20206;-80
2022/08/15 03:23:24;;;;;;;1.05;0.30;;;18.00;99.90;;;;;;5040239;28;20267;-74
2022/08/15 03:25:56;;;;;;;1.05;0.30;;;18.00;99.90;;;;;;5035705;28;20190;-74
2022/08/15 03:28:31;;;;;;;2.80;0.38;;;17.90;99.90;;;;;;5031811;28;20349;-82
2022/08/15 03:31:05;;;;;;;0.35;0.30;;;17.90;99.90;;;;;;5034696;28;20397;-80
2022/08/15 03:33:38;;;;;;;0.52;0.30;;;18.00;99.90;;;;;;5039560;28;20297;-83
2022/08/15 03:36:10;;;;;;;0.77;0.30;;;17.90;99.90;;;;;;5034221;28;20218;-80
2022/08/15 03:38:41;;;;;;;0.88;0.30;;;17.90;99.90;;;;;;5033803;28;20584;-74
2022/08/15 03:41:12;;;;;;;0.50;0.40;;;18.00;99.90;;;;;;5035558;28;20206;-73
2022/08/15 03:43:46;;;;;;;0.30;0.28;;;18.00;99.90;;;;;;5030870;28;20234;-75
2022/08/15 03:46:20;;;;;;;0.55;0.30;;;17.90;99.90;;;;;;5027763;28;20198;-79
2022/08/15 03:48:52;;;;;;;1.25;0.45;;;17.90;99.90;;;;;;5030761;28;20273;-78
2022/08/15 03:51:24;;;;;;;0.82;0.50;;;17.90;99.90;;;;;;5031353;28;20205;-74
2022/08/15 03:53:57;;;;;;;0.40;0.40;;;17.90;99.90;;;;;;5033547;28;20199;-70
2022/08/15 03:56:31;;;;;;;1.02;0.40;;;17.80;99.90;;;;;;5038208;28;20218;-74
2022/08/15 03:59:05;;;;;;;0.82;0.45;;;17.90;99.90;;;;;;5035733;28;20215;-76
2022/08/15 04:01:39;;;;;;;0.40;0.40;;;18.10;99.90;;;;;;5032242;28;20201;-73
2022/08/15 04:04:09;;;;;;;0.82;0.40;;;18.20;99.90;;;;;;5036482;28;20206;-72
2022/08/15 04:06:40;;;;;;;0.55;0.38;;;18.20;99.90;;;;;;5034200;28;20198;-74
2022/08/15 04:09:11;;;;;;;0.50;0.40;;;18.20;99.90;;;;;;5034018;28;20670;-71
2022/08/15 04:11:42;;;;;;;1.80;0.40;;;18.00;99.90;;;;;;5034429;28;20595;-72
2022/08/15 04:14:16;;;;;;;1.65;0.55;;;17.80;99.90;;;;;;5040134;28;20194;-75
2022/08/15 04:16:47;;;;;;;0.30;0.30;;;17.70;99.90;;;;;;5034102;28;20305;-77
2022/08/15 04:19:19;;;;;;;1.88;0.25;;;17.60;99.90;;;;;;5031288;28;20565;-73
2022/08/15 04:21:49;;;;;;;2.15;0.32;;;17.60;99.90;;;;;;5033220;28;20201;-74
2022/08/15 04:24:21;;;;;;;0.40;0.40;;;17.50;99.90;;;;;;5035472;28;20198;-73
2022/08/15 04:26:52;;;;;;;0.70;0.40;;;17.70;99.90;;;;;;5027888;28;20619;-76
2022/08/15 04:29:25;;;;;;;0.40;0.40;;;17.80;99.90;;;;;;5029547;28;20608;-78
2022/08/15 04:31:58;;;;;;;0.52;0.40;;;17.90;99.90;;;;;;5031026;28;20564;-70
2022/08/15 04:34:30;;;;;;;1.63;0.50;;;17.90;99.90;;;;;;5038307;28;20197;-74
2022/08/15 04:37:01;;;;;;;0.47;0.35;;;17.90;99.90;;;;;;5043759;28;20218;-73
2022/08/15 04:39:32;;;;;;;0.30;0.30;;;17.70;99.90;;;;;;5033396;28;20237;-73
2022/08/15 04:42:05;;;;;;;0.77;0.30;;;17.70;99.90;;;;;;5034738;28;20190;-75
2022/08/15 04:44:40;;;;;;;3.30;0.50;;;17.60;99.90;;;;;;5034984;28;20198;-78
2022/08/15 04:47:11;;;;;;;1.23;0.40;;;17.40;99.90;;;;;;5023892;28;20197;-76
2022/08/15 04:49:42;;;;;;;1.75;0.50;;;17.50;99.90;;;;;;5042297;28;20197;-76
2022/08/15 04:52:14;;;;;;;0.65;0.40;;;17.40;99.90;;;;;;5047568;28;20683;-72
2022/08/15 04:54:45;;;;;;;0.77;0.40;;;17.50;99.90;;;;;;5030557;28;20194;-73
2022/08/15 04:57:17;;;;;;;3.80;0.60;;;17.50;99.90;;;;;;5032167;28;20225;-74
2022/08/15 04:59:50;;;;;;;1.45;0.35;;;17.60;99.90;;;;;;5030362;28;20198;-73
2022/08/15 05:02:27;;;;;;;1.30;0.52;;;17.60;99.90;;;;;;5034224;28;20198;-75
2022/08/15 05:04:58;;;;;;;0.80;0.60;;;17.60;99.90;;;;;;5033599;28;20201;-76
2022/08/15 05:07:29;;;;;;;2.60;0.45;;;17.50;99.90;;;;;;5028532;28;20182;-77
2022/08/15 05:10:01;;;;;;;2.10;0.70;;;17.40;99.90;;;;;;5028392;28;20203;-73
2022/08/15 05:12:32;;;;;;;2.22;0.40;;;17.40;99.90;;;;;;5032367;28;20195;-74
2022/08/15 05:15:05;;;;;;;1.20;0.50;;;17.40;99.90;;;;;;5026512;28;20582;-71
2022/08/15 05:17:36;;;;;;;0.82;0.50;;;17.40;99.90;;;;;;5034574;28;20218;-72
2022/08/15 05:20:08;;;;;;;0.70;0.30;;;17.40;99.90;;;;;;5045934;28;20194;-77
2022/08/15 05:22:54;;;;;;;1.02;0.35;;;17.30;99.90;;;;;;5033209;28;20186;-74
2022/08/15 05:25:25;;;;;;;0.90;0.50;;;17.30;99.90;;;;;;5032912;28;20186;-73
2022/08/15 05:27:56;;;;;;;0.45;0.43;;;17.20;99.90;;;;;;5032716;28;20610;-79
2022/08/15 05:30:29;;;;;;;0.85;0.45;;;17.10;99.90;;;;;;5032787;28;20193;-79
2022/08/15 05:33:10;;;;;;;0.40;0.40;;;17.10;99.90;;;;;;5032902;28;20277;-77
2022/08/15 05:35:43;;;;;;;0.45;0.30;;;17.00;99.90;;;;;;5032592;28;20201;-75
2022/08/15 05:38:17;;;;;;;0.70;0.40;;;17.00;99.90;;;;;;5029675;28;20250;-78
2022/08/15 05:41:07;;;;;;;0.63;0.40;;;17.00;99.90;;;;;;5026671;28;20711;-75
2022/08/15 05:43:46;;;;;;;0.75;0.50;;;17.00;99.90;;;;;;5029763;28;20225;-81
2022/08/15 05:46:39;;;;;;;0.75;0.30;;;16.90;99.90;;;;;;5032751;28;20202;-79
2022/08/15 05:49:20;;;;;;;1.02;0.50;;;16.90;99.90;;;;;;5025928;28;20186;-81
2022/08/15 05:51:57;;;;;;;0.65;0.40;;;16.90;99.90;;;;;;5027606;28;20241;-82
2022/08/15 05:54:35;;;;;;;1.30;0.40;;;16.80;99.90;;;;;;5032390;28;20201;-81
2022/08/15 05:57:12;;;;;;;0.30;0.30;;;16.70;99.90;;;;;;5026208;28;20221;-79
2022/08/15 05:59:46;;;;;;;1.08;0.40;;;16.60;99.90;;;;;;5029668;28;20197;-81
2022/08/15 06:02:23;;;;;;;0.65;0.52;;;16.60;99.90;;;;;;5031497;28;20654;-79
2022/08/15 06:05:00;;;;;;;0.60;0.45;;;16.60;99.90;;;;;;5031442;28;20186;-73
2022/08/15 06:07:33;;;;;;;0.45;0.40;;;16.50;99.90;;;;;;5032278;28;20190;-77
2022/08/15 06:10:08;;;;;;;1.27;0.40;;;16.50;99.90;;;;;;5027920;28;20194;-72
2022/08/15 06:12:44;;;;;;;0.30;0.30;;;16.40;99.90;;;;;;5027651;28;20248;-77
2022/08/15 06:15:21;;;;;;;0.20;0.20;;;16.40;99.90;;;;;;5029843;28;20190;-75
2022/08/15 06:18:00;;;;;;;1.02;0.20;;;16.30;99.90;;;;;;5028000;28;20214;-72
2022/08/15 06:20:38;;;;;;;1.40;0.30;;;16.20;99.90;;;;;;5031662;28;20567;-78
2022/08/15 06:23:16;;;;;;;1.27;0.40;;;16.20;99.90;;;;;;5025064;28;20190;-82
2022/08/15 06:26:00;;;;;;;0.55;0.40;;;16.10;99.90;;;;;;5024747;28;20229;-78
2022/08/15 06:28:50;;;;;;;0.55;0.30;;;16.10;99.90;;;;;;5022587;28;20225;-78
2022/08/15 06:31:29;;;;;;;0.60;0.35;;;16.00;99.90;;;;;;5027904;28;20562;-77
2022/08/15 06:34:09;;;;;;;0.95;0.35;;;15.90;99.90;;;;;;5031981;28;20277;-82
2022/08/15 06:36:46;;;;;;;3.10;0.43;;;15.90;99.90;;;;;;5030071;28;20681;-82
2022/08/15 06:39:25;;;;;;;1.65;0.40;;;15.90;99.90;;;;;;5023321;28;20233;-79
2022/08/15 06:42:04;;;;;;;0.30;0.30;;;15.80;99.90;;;;;;5026022;28;20201;-79
2022/08/15 06:44:35;;;;;;;1.90;0.30;;;15.80;99.90;;;;;;5029768;28;20202;-77
2022/08/15 06:47:08;;;;;;;2.63;0.40;;;15.70;99.90;;;;;;5027792;28;20198;-81
2022/08/15 06:49:45;;;;;;;1.70;0.50;;;15.70;99.90;;;;;;5030036;28;20212;-78
2022/08/15 06:52:18;;;;;;;1.40;0.43;;;15.60;99.90;;;;;;5029617;28;20204;-81
2022/08/15 06:54:49;;;;;;;0.32;0.22;;;15.60;99.90;;;;;;5027975;28;20216;-82
2022/08/15 06:57:27;;;;;;;0.40;0.40;;;15.50;99.90;;;;;;5030405;28;20292;-82
2022/08/15 07:00:12;;;;;;;0.93;0.40;;;15.40;99.90;;;;;;5030096;28;20194;-75
2022/08/15 07:02:59;;;;;;;0.50;0.30;;;15.40;99.90;;;;;;5029016;28;20197;-73
2022/08/15 07:05:40;;;;;;;0.90;0.50;;;15.30;99.90;;;;;;5029688;28;20198;-72
2022/08/15 07:08:21;;;;;;;1.27;0.40;;;15.30;99.90;;;;;;5027820;28;20276;-72
2022/08/15 07:10:55;;;;;;;0.40;0.40;;;15.20;99.90;;;;;;5023844;28;20197;-79
2022/08/15 07:13:30;;;;;;;0.50;0.40;;;15.20;99.90;;;;;;5031141;28;20190;-81
2022/08/15 07:16:06;;;;;;;0.90;0.40;;;15.10;99.90;;;;;;5031308;28;20190;-81
2022/08/15 07:18:40;;;;;;;0.43;0.43;;;15.10;99.90;;;;;;5030937;28;20200;-77
2022/08/15 07:21:16;;;;;;;0.35;0.35;;;15.00;99.90;;;;;;5030303;28;20216;-80
2022/08/15 07:24:02;;;;;;;1.67;0.43;;;15.00;99.90;;;;;;5031151;28;20197;-82
2022/08/15 07:26:40;;;;;;;0.88;0.40;;;15.00;99.90;;;;;;5030483;28;20198;-82
2022/08/15 07:29:16;;;;;;;0.68;0.30;;;14.90;99.90;;;;;;5029329;28;20233;-81
2022/08/15 07:31:48;;;;;;;0.40;0.40;;;14.90;99.90;;;;;;5033864;28;20212;-75
2022/08/15 07:34:21;;;;;;;0.30;0.30;;;14.90;99.90;;;;;;5030106;28;20553;-80
2022/08/15 07:36:59;;;;;;;0.65;0.50;;;14.80;99.90;;;;;;5031289;28;20221;-78
2022/08/15 07:39:36;;;;;;;1.40;0.40;;;14.80;99.90;;;;;;5030071;28;20652;-75
2022/08/15 07:42:19;;;;;;;2.38;0.50;;;14.80;99.90;;;;;;5033455;28;20528;-77
2022/08/15 07:44:55;;;;;;;0.70;0.50;;;14.70;99.90;;;;;;5035766;28;20750;-79
2022/08/15 07:47:30;;;;;;;0.45;0.45;;;14.70;99.90;;;;;;5033115;28;20202;-72
2022/08/15 07:50:04;;;;;;;0.70;0.40;;;14.70;99.90;;;;;;5026400;28;20198;-73
2022/08/15 07:52:37;;;;;;;0.50;0.50;;;14.60;99.90;;;;;;5031232;28;20267;-71
2022/08/15 07:55:19;;;;;;;0.68;0.50;;;14.60;99.90;;;;;;5027936;28;20204;-70
2022/08/15 07:58:03;;;;;;;0.68;0.55;;;14.60;99.90;;;;;;5031064;28;20604;-72
2022/08/15 08:00:36;;;;;;;1.35;0.40;;;14.60;99.90;;;;;;5027210;28;20252;-71
2022/08/15 08:03:13;;;;;;;0.52;0.40;;;14.60;99.90;;;;;;5032143;28;20201;-72
2022/08/15 08:05:58;;;;;;;0.70;0.50;;;14.50;99.90;;;;;;5029978;28;20201;-71
2022/08/15 08:08:36;;;;;;;2.63;0.60;;;14.50;99.90;;;;;;5029939;28;20220;-71
2022/08/15 08:11:14;;;;;;;0.55;0.50;;;14.50;99.90;;;;;;5031388;28;20204;-74
2022/08/15 08:13:53;;;;;;;0.45;0.45;;;14.40;99.90;;;;;;5032448;28;20743;-72
2022/08/15 08:16:29;;;;;;;1.20;0.60;;;14.40;99.90;;;;;;5034032;28;20192;-72
2022/08/15 08:19:06;;;;;;;1.02;0.60;;;14.40;99.90;;;;;;5031715;28;20228;-79
2022/08/15 08:21:46;;;;;;;1.08;0.80;;;14.30;99.90;;;;;;5023767;28;20662;-79
2022/08/15 08:24:27;;;;;;;1.70;0.57;;;14.30;99.90;;;;;;5031863;28;20691;-78
2022/08/15 08:27:05;;;;;;;0.82;0.57;;;14.30;99.90;;;;;;5028114;28;20198;-72
2022/08/15 08:29:47;;;;;;;0.77;0.60;;;14.30;99.90;;;;;;5025343;28;20222;-72
2022/08/15 08:32:27;;;;;;;1.40;0.75;;;14.20;99.90;;;;;;5031685;28;20650;-73
2022/08/15 08:35:07;;;;;;;0.63;0.60;;;14.20;99.90;;;;;;5029827;28;20942;-76
2022/08/15 08:37:46;;;;;;;0.77;0.60;;;14.20;99.90;;;;;;5027383;28;20343;-76
2022/08/15 08:43:30;;;;;;;0.60;0.50;;;14.20;99.90;;;;;;5033615;28;20193;-72
2022/08/15 08:46:08;;;;;;;0.57;0.50;;;14.20;99.90;;;;;;5031698;28;20183;-81
2022/08/15 08:48:48;;;;;;;0.80;0.52;;;14.20;99.90;;;;;;5028044;28;20206;-80
2022/08/15 08:51:27;;;;;;;1.08;0.60;;;14.20;99.90;;;;;;5029089;28;20281;-72
2022/08/15 08:54:08;;;;;;;0.80;0.50;;;14.20;99.90;;;;;;5037007;28;20213;-71
2022/08/15 08:56:44;;;;;;;0.90;0.70;;;14.20;99.90;;;;;;5029398;28;20285;-71
2022/08/15 08:59:22;;;;;;;1.25;0.60;;;14.10;99.90;;;;;;5035896;28;20234;-71
2022/08/15 09:01:58;;;;;;;1.27;0.80;;;14.10;99.90;;;;;;5037893;28;20247;-71
2022/08/15 09:04:46;;;;;;;0.70;0.70;;;14.00;99.90;;;;;;5027354;28;20983;-71
2022/08/15 09:07:25;;;;;;;1.15;0.75;;;14.00;99.90;;;;;;5038622;28;20658;-73
2022/08/15 09:09:59;;;;;;;0.70;0.60;;;14.00;99.90;;;;;;5030523;28;20198;-74
2022/08/15 09:15:28;;;;;;;1.00;0.70;;;14.00;99.90;;;;;;5031335;28;20276;-71
2022/08/15 09:18:05;;;;;;;0.60;0.60;;;13.90;99.90;;;;;;5031533;28;20226;-72
2022/08/15 09:20:38;;;;;;;0.93;0.60;;;13.90;99.90;;;;;;5035047;28;20198;-71
2022/08/15 09:23:11;;;;;;;0.70;0.70;;;13.90;99.90;;;;;;5028175;28;20204;-77
2022/08/15 09:25:57;;;;;;;0.70;0.60;;;13.90;99.90;;;;;;5030417;28;20657;-74
2022/08/15 09:28:35;;;;;;;1.38;0.65;;;13.90;99.90;;;;;;5023847;28;20292;-74
2022/08/15 09:31:10;;;;;;;0.60;0.60;;;13.80;99.90;;;;;;5033668;28;20197;-72
2022/08/15 09:34:10;;;;;;;1.38;0.82;;;13.90;99.90;;;;;;5026984;28;20202;-73
2022/08/15 09:37:14;;;;;;;0.82;0.60;;;13.90;99.90;;;;;;5035983;28;20212;-72
2022/08/15 09:40:10;;;;;;;0.68;0.55;;;13.90;99.90;;;;;;5033986;28;20237;-73
2022/08/15 09:43:03;;;;;;;1.40;0.70;;;13.80;99.90;;;;;;5026369;28;20186;-71
2022/08/15 09:45:54;;;;;;;1.50;0.63;;;13.80;99.90;;;;;;5025372;28;20206;-72
2022/08/15 09:48:52;;;;;;;0.93;0.70;;;13.80;99.90;;;;;;5025404;28;20685;-80
2022/08/15 09:51:37;;;;;;;1.60;0.60;;;13.80;99.90;;;;;;5030880;28;20572;-72
2022/08/15 09:54:17;;;;;;;0.77;0.68;;;13.70;99.90;;;;;;5032350;28;20211;-79
2022/08/15 09:56:49;;;;;;;0.70;0.60;;;13.70;99.90;;;;;;5040229;28;20199;-71
2022/08/15 09:59:22;;;;;;;0.60;0.60;;;13.70;99.90;;;;;;5035676;28;20226;-75
2022/08/15 10:02:00;;;;;;;1.20;0.95;;;13.70;99.90;;;;;;5032299;28;20237;-71
2022/08/15 10:05:03;;;;;;;1.90;0.70;;;13.70;99.90;;;;;;5029027;28;20662;-80
2022/08/15 10:07:45;;;;;;;1.20;0.80;;;13.70;99.90;;;;;;5031047;28;20202;-80
2022/08/15 10:10:21;;;;;;;1.45;1.00;;;13.60;99.90;;;;;;5034233;28;20200;-78
2022/08/15 10:13:13;;;;;;;0.93;0.82;;;13.50;99.90;;;;;;5029361;28;20247;-81
2022/08/15 10:15:46;;;;;;;2.00;1.10;;;13.50;99.90;;;;;;5030007;28;20616;-77
2022/08/15 10:19:08;;;;;;;1.60;0.90;;;13.40;99.90;;;;;;5040520;28;20236;-80
2022/08/15 10:21:41;;;;;;;1.83;1.00;;;13.30;99.90;;;;;;5029465;28;20206;-79
2022/08/15 10:24:27;;;;;;;1.80;0.90;;;13.30;99.90;;;;;;5032464;28;20205;-81
2022/08/15 10:27:22;;;;;;;1.70;0.90;;;13.20;99.90;;;;;;5027673;28;21322;-79
2022/08/15 10:30:10;;;;;;;2.63;1.13;;;13.20;99.90;;;;;;5030169;28;20209;-80
2022/08/15 10:32:44;;;;;;;1.30;1.00;;;13.10;99.90;;;;;;5034015;28;20680;-78
2022/08/15 10:35:22;;;;;;;1.23;0.88;;;13.10;99.90;;;;;;5032245;28;20217;-78
2022/08/15 10:37:56;;;;;;;2.15;0.90;;;13.10;99.90;;;;;;5041837;28;20217;-80
2022/08/15 10:40:52;;;;;;;1.83;1.10;;;13.10;99.90;;;;;;5030820;28;20257;-73
2022/08/15 10:43:46;;;;;;;1.00;0.90;;;13.00;99.90;;;;;;5031895;28;20212;-77
2022/08/15 10:46:24;;;;;;;2.00;1.10;;;13.00;99.90;;;;;;5024174;28;20304;-80
2022/08/15 10:49:14;;;;;;;1.30;0.98;;;13.00;99.90;;;;;;5026360;28;20975;-79
2022/08/15 10:52:07;;;;;;;1.27;1.10;;;13.00;99.90;;;;;;5028856;28;20206;-79
2022/08/15 10:55:00;;;;;;;1.40;1.17;;;13.00;99.90;;;;;;5028193;28;20198;-80
2022/08/15 10:57:40;;;;;;;2.13;1.00;;;12.90;99.90;;;;;;5036499;28;20209;-72
2022/08/15 11:00:16;;;;;;;0.82;0.80;;;12.90;99.90;;;;;;5036757;28;20198;-78
2022/08/15 11:02:54;;;;;;;1.75;1.13;;;12.80;99.90;;;;;;5030660;28;20213;-80
2022/08/15 11:05:28;;;;;;;1.95;1.10;;;12.80;99.90;;;;;;5032048;28;20638;-78
2022/08/15 11:08:02;;;;;;;3.65;2.28;;;12.70;99.90;;;;;;5032587;28;20271;-80
2022/08/15 11:10:36;;;;;;;5.78;4.20;;;12.70;99.90;;;;;;5033608;28;20222;-81
2022/08/15 11:13:11;;;;;;;9.10;6.97;;;12.60;99.90;;;;;;5035011;28;20194;-79
2022/08/15 11:15:54;;;;;;;5.28;4.07;;;12.60;99.90;;;;;;5032156;28;20944;-81
2022/08/15 11:18:35;;;;;;;6.53;5.28;;;12.50;99.90;;;;;;5031579;28;20236;-79
2022/08/15 11:21:18;;;;;;;5.90;2.60;;;12.50;99.90;;;;;;5037503;28;20205;-78
2022/08/15 11:23:56;;;;;;;2.72;1.75;;;12.40;99.90;;;;;;5032342;28;20210;-79
2022/08/15 11:26:30;;;;;;;2.55;1.58;;;12.30;99.90;;;;;;5034151;28;20584;-80
2022/08/15 11:29:14;;;;;;;2.38;1.30;;;12.20;99.90;;;;;;5034005;28;20233;-73
2022/08/15 11:31:56;;;;;;;1.45;1.20;;;12.30;99.90;;;;;;5043890;28;20197;-80
2022/08/15 11:34:30;;;;;;;2.28;1.20;;;12.30;99.90;;;;;;5042593;28;20548;-75
2022/08/15 11:37:07;;;;;;;1.67;1.20;;;12.30;99.90;;;;;;5038855;28;20205;-70
2022/08/15 11:39:43;;;;;;;1.85;1.10;;;12.30;99.90;;;;;;5036502;28;20799;-70
2022/08/15 11:42:18;;;;;;;1.65;1.10;;;12.30;99.90;;;;;;5041262;28;20254;-72
2022/08/15 11:44:54;;;;;;;1.30;1.10;;;12.20;99.90;;;;;;5035491;28;20194;-76
2022/08/15 11:47:26;;;;;;;1.38;1.05;;;12.20;99.90;;;;;;5036557;28;20193;-70
2022/08/15 11:50:00;;;;;;;1.35;0.90;;;12.20;99.90;;;;;;5037188;28;20198;-70
2022/08/15 11:52:34;;;;;;;1.15;1.00;;;12.20;99.90;;;;;;5034560;28;20190;-74
2022/08/15 11:55:25;;;;;;;1.17;1.08;;;12.10;99.90;;;;;;5032708;28;20588;-81
2022/08/15 11:57:58;;;;;;;1.25;0.90;;;12.10;99.90;;;;;;5034918;28;20210;-80
2022/08/15 12:00:32;;;;;;;1.10;0.80;;;12.10;99.90;;;;;;5033469;28;20678;-80
2022/08/15 12:03:17;;;;;;;0.93;0.80;;;12.10;99.90;;;;;;5033960;28;20594;-78
2022/08/15 12:05:49;;;;;;;0.80;0.80;;;12.10;99.90;;;;;;5032923;28;20672;-79
2022/08/15 12:08:26;;;;;;;1.52;0.85;;;12.20;99.90;;;;;;5034800;28;20198;-81
2022/08/15 12:11:08;;;;;;;1.15;0.70;;;12.20;99.90;;;;;;5034413;28;20194;-80
2022/08/15 12:13:40;;;;;;;0.98;0.73;;;12.20;99.90;;;;;;5033064;28;20248;-81
2022/08/15 12:16:25;;;;;;;1.73;0.90;;;12.20;99.90;;;;;;5034144;28;20567;-80
2022/08/15 12:18:56;;;;;;;1.00;0.80;;;12.20;99.90;;;;;;5025655;28;20749;-81
2022/08/15 12:21:27;;;;;;;1.08;0.82;;;12.20;99.90;;;;;;5036585;28;20665;-81
2022/08/15 12:24:00;;;;;;;0.90;0.80;;;12.20;99.90;;;;;;5034538;28;20201;-81
2022/08/15 12:26:33;;;;;;;0.73;0.70;;;12.20;99.90;;;;;;5027736;28;20287;-82
2022/08/15 12:29:04;;;;;;;0.85;0.70;;;12.20;99.90;;;;;;5032037;28;20218;-76
2022/08/15 12:31:37;;;;;;;130.00;79.93;;;12.20;99.90;;;;;;5033164;28;20194;-79
2022/08/15 12:34:12;;;;;;;9.95;6.20;;;12.20;99.90;;;;;;5041329;28;20248;-81
2022/08/15 12:36:44;;;;;;;4.25;3.35;;;12.20;99.90;;;;;;5039758;28;20193;-81
2022/08/15 12:39:17;;;;;;;2.92;2.05;;;12.20;99.90;;;;;;5033318;28;20706;-81
2022/08/15 12:41:57;;;;;;;2.53;1.48;;;12.20;99.90;;;;;;5034795;28;20206;-76
2022/08/15 12:44:34;;;;;;;1.20;1.10;;;12.20;99.90;;;;;;5032159;28;20256;-73
2022/08/15 12:47:07;;;;;;;1.60;0.80;;;12.20;99.90;;;;;;5035886;28;20226;-82
2022/08/15 12:49:38;;;;;;;1.35;0.90;;;12.20;99.90;;;;;;5037463;28;20861;-82
2022/08/15 12:52:09;;;;;;;0.60;0.60;;;12.20;99.90;;;;;;5028395;28;20202;-79
2022/08/15 12:54:40;;;;;;;0.70;0.70;;;12.20;99.90;;;;;;5032997;28;20534;-82
2022/08/15 12:57:13;;;;;;;1.25;0.68;;;12.20;99.90;;;;;;5037187;28;20209;-82
2022/08/15 12:59:44;;;;;;;1.20;0.80;;;12.20;99.90;;;;;;5032576;28;20214;-81
2022/08/15 13:02:16;;;;;;;0.60;0.60;;;12.20;99.90;;;;;;5029021;28;20705;-81
2022/08/15 13:04:50;;;;;;;1.02;0.70;;;12.20;99.90;;;;;;5031564;28;20202;-82
2022/08/15 13:07:22;;;;;;;1.38;0.70;;;12.20;99.90;;;;;;5036396;28;20277;-81
2022/08/15 13:09:52;;;;;;;1.83;0.70;;;12.20;99.90;;;;;;5036083;28;20610;-82
2022/08/15 13:12:25;;;;;;;0.80;0.80;;;12.10;99.90;;;;;;5026271;28;20204;-83
2022/08/15 13:14:57;;;;;;;1.17;0.90;;;12.10;99.90;;;;;;5032650;28;20202;-81
2022/08/15 13:17:27;;;;;;;0.75;0.75;;;12.10;99.90;;;;;;5031475;28;20202;-82
2022/08/15 13:25:28;;;;;;;1.83;0.80;;;12.00;99.90;;;;;;5018712;28;20198;-81
2022/08/15 13:28:01;;;;;;;0.80;0.80;;;12.00;99.90;;;;;;5033000;28;20239;-75
2022/08/15 13:30:33;;;;;;;1.30;0.98;;;12.00;99.90;;;;;;5028333;28;20201;-81
2022/08/15 13:33:05;;;;;;;1.13;0.98;;;11.90;99.90;;;;;;5036978;28;20237;-71
2022/08/15 13:35:35;;;;;;;1.20;0.82;;;11.90;99.90;;;;;;5045160;28;20703;-71
2022/08/15 13:38:07;;;;;;;1.02;0.95;;;11.80;99.90;;;;;;5033094;28;20198;-82
2022/08/15 13:40:39;;;;;;;39.72;28.42;;;11.80;99.90;;;;;;5029717;28;20207;-78
2022/08/15 13:43:12;;;;;;;7.07;4.45;;;11.80;99.90;;;;;;5040170;28;20232;-81